Wetterdaten: aktuell Sonntag, 25.07.2021 18:25
Datum Zeit Temp. A. Feuchte A. Luftdruck Regen Wind Richtung Richtung Taupunkt Windchill Windben
25.07.2021 18:25 21,4 C 71 % 1008,9 hPa 0,0 l/m 0,0 km/h (0 Bft) NO 42 15,9 C 21,4 C 0,0 km/h (0 Bft)
25.07.2021 18:20 20,9 C 74 % 1008,8 hPa 0,0 l/m 0,0 km/h (0 Bft) NO 42 16,1 C 20,9 C 0,0 km/h (0 Bft)
25.07.2021 18:15 20,9 C 76 % 1008,9 hPa 0,0 l/m 0,0 km/h (0 Bft) N-NO 30 16,5 C 20,9 C 0,0 km/h (0 Bft)
25.07.2021 18:10 21,0 C 73 % 1008,9 hPa 0,0 l/m 0,0 km/h (0 Bft) N-NO 30 16,0 C 21,0 C 0,0 km/h (0 Bft)
25.07.2021 18:05 21,0 C 72 % 1008,9 hPa 0,0 l/m 0,0 km/h (0 Bft) N-NO 30 15,8 C 21,0 C 0,0 km/h (0 Bft)
25.07.2021 18:00 21,0 C 73 % 1009,0 hPa 0,0 l/m 0,3 km/h (0 Bft) N-NO 30 16,0 C 21,0 C 3,2 km/h (1 Bft)
25.07.2021 17:55 21,4 C 73 % 1009,0 hPa 0,0 l/m 0,4 km/h (0 Bft) NO 45 16,4 C 21,4 C 6,4 km/h (2 Bft)
25.07.2021 17:50 21,4 C 75 % 1008,9 hPa 0,0 l/m 0,0 km/h (0 Bft) O 90 16,8 C 21,4 C 0,0 km/h (0 Bft)
25.07.2021 17:45 21,2 C 70 % 1009,0 hPa 0,0 l/m 0,0 km/h (0 Bft) O-NO 78 15,5 C 21,2 C 0,0 km/h (0 Bft)
25.07.2021 17:40 21,2 C 68 % 1009,1 hPa 0,0 l/m 0,0 km/h (0 Bft) O-NO 78 15,1 C 21,2 C 0,0 km/h (0 Bft)
25.07.2021 17:35 21,2 C 68 % 1009,1 hPa 0,0 l/m 0,0 km/h (0 Bft) O 79 15,1 C 21,2 C 0,0 km/h (0 Bft)
25.07.2021 17:30 21,2 C 70 % 1009,2 hPa 0,0 l/m 0,0 km/h (0 Bft) O 79 15,5 C 21,2 C 0,0 km/h (0 Bft)
25.07.2021 17:25 21,3 C 71 % 1009,1 hPa 0,0 l/m 0,0 km/h (0 Bft) O 79 15,8 C 21,3 C 0,0 km/h (0 Bft)
25.07.2021 17:20 21,6 C 70 % 1009,0 hPa 0,0 l/m 0,0 km/h (0 Bft) O 90 15,9 C 21,6 C 0,0 km/h (0 Bft)
25.07.2021 17:15 21,3 C 71 % 1009,0 hPa 0,0 l/m 0,0 km/h (0 Bft) S-SO 165 15,8 C 21,3 C 0,0 km/h (0 Bft)
25.07.2021 17:10 21,2 C 70 % 1009,2 hPa 0,0 l/m 0,0 km/h (0 Bft) S-SO 166 15,5 C 21,2 C 0,0 km/h (0 Bft)
25.07.2021 17:05 21,1 C 70 % 1009,1 hPa 0,0 l/m 0,0 km/h (0 Bft) S-SO 166 15,4 C 21,1 C 0,0 km/h (0 Bft)
25.07.2021 17:00 21,0 C 71 % 1009,0 hPa 0,0 l/m 0,0 km/h (0 Bft) S-SO 166 15,5 C 21,0 C 0,0 km/h (0 Bft)
25.07.2021 16:55 20,9 C 70 % 1009,1 hPa 0,0 l/m 0,0 km/h (0 Bft) S-SO 166 15,2 C 20,9 C 0,0 km/h (0 Bft)
25.07.2021 16:50 20,8 C 72 % 1009,1 hPa 0,0 l/m 0,0 km/h (0 Bft) S-SO 166 15,6 C 20,8 C 0,0 km/h (0 Bft)
25.07.2021 16:45 20,8 C 71 % 1009,2 hPa 0,0 l/m 0,0 km/h (0 Bft) S-SO 166 15,3 C 20,8 C 0,0 km/h (0 Bft)
25.07.2021 16:40 20,8 C 70 % 1009,3 hPa 0,0 l/m 0,0 km/h (0 Bft) S 171 15,1 C 20,8 C 0,0 km/h (0 Bft)
25.07.2021 16:35 20,8 C 70 % 1009,4 hPa 0,0 l/m 0,0 km/h (0 Bft) S 171 15,1 C 20,8 C 0,0 km/h (0 Bft)
25.07.2021 16:30 21,0 C 72 % 1009,3 hPa 0,0 l/m 0,0 km/h (0 Bft) S 171 15,8 C 21,0 C 0,0 km/h (0 Bft)
25.07.2021 16:25 21,0 C 74 % 1009,3 hPa 0,0 l/m 0,0 km/h (0 Bft) S 191 16,2 C 21,0 C 0,0 km/h (0 Bft)
25.07.2021 16:20 20,9 C 71 % 1009,3 hPa 0,0 l/m 0,0 km/h (0 Bft) S 191 15,4 C 20,9 C 0,0 km/h (0 Bft)
25.07.2021 16:15 21,0 C 70 % 1009,3 hPa 0,0 l/m 0,1 km/h (0 Bft) S 178 15,3 C 21,0 C 1,6 km/h (1 Bft)
25.07.2021 16:10 20,9 C 69 % 1009,2 hPa 0,0 l/m 0,1 km/h (0 Bft) S-SW 209 15,0 C 20,9 C 3,2 km/h (1 Bft)
25.07.2021 16:05 21,2 C 72 % 1009,2 hPa 0,0 l/m 0,1 km/h (0 Bft) S 188 15,9 C 21,2 C 1,6 km/h (1 Bft)
25.07.2021 16:00 20,9 C 69 % 1009,3 hPa 0,0 l/m 0,0 km/h (0 Bft) S 176 15,0 C 20,9 C 0,0 km/h (0 Bft)
25.07.2021 15:55 20,8 C 71 % 1009,3 hPa 0,0 l/m 0,0 km/h (0 Bft) S 169 15,3 C 20,8 C 0,0 km/h (0 Bft)
25.07.2021 15:50 20,7 C 70 % 1009,3 hPa 0,0 l/m 0,0 km/h (0 Bft) S-SO 156 15,0 C 20,7 C 0,0 km/h (0 Bft)
25.07.2021 15:45 20,6 C 71 % 1009,3 hPa 0,0 l/m 0,0 km/h (0 Bft) S-SW 200 15,2 C 20,6 C 0,0 km/h (0 Bft)
25.07.2021 15:40 20,6 C 72 % 1009,3 hPa 0,0 l/m 0,0 km/h (0 Bft) S-SW 200 15,4 C 20,6 C 0,0 km/h (0 Bft)
25.07.2021 15:35 20,6 C 72 % 1009,4 hPa 0,0 l/m 0,0 km/h (0 Bft) S-SW 200 15,4 C 20,6 C 1,6 km/h (1 Bft)
25.07.2021 15:30 20,6 C 72 % 1009,5 hPa 0,0 l/m 0,2 km/h (0 Bft) S 184 15,4 C 20,6 C 3,2 km/h (1 Bft)
25.07.2021 15:25 20,7 C 72 % 1009,4 hPa 0,0 l/m 0,0 km/h (0 Bft) S-SW 212 15,5 C 20,7 C 1,6 km/h (1 Bft)
25.07.2021 15:20 20,7 C 72 % 1009,4 hPa 0,0 l/m 0,0 km/h (0 Bft) S 183 15,5 C 20,7 C 0,0 km/h (0 Bft)
25.07.2021 15:15 20,6 C 74 % 1009,3 hPa 0,0 l/m 0,0 km/h (0 Bft) S 183 15,8 C 20,6 C 0,0 km/h (0 Bft)
25.07.2021 15:10 20,7 C 74 % 1009,3 hPa 0,0 l/m 0,0 km/h (0 Bft) S 183 15,9 C 20,7 C 0,0 km/h (0 Bft)
25.07.2021 15:05 20,8 C 70 % 1009,3 hPa 0,0 l/m 0,0 km/h (0 Bft) S 183 15,1 C 20,8 C 0,0 km/h (0 Bft)
25.07.2021 15:00 20,7 C 71 % 1009,2 hPa 0,0 l/m 0,0 km/h (0 Bft) S-SW 192 15,2 C 20,7 C 0,0 km/h (0 Bft)
25.07.2021 14:55 20,7 C 72 % 1009,3 hPa 0,0 l/m 0,0 km/h (0 Bft) S-SW 192 15,5 C 20,7 C 0,0 km/h (0 Bft)
25.07.2021 14:50 20,7 C 72 % 1009,3 hPa 0,0 l/m 0,0 km/h (0 Bft) S-SW 192 15,5 C 20,7 C 0,0 km/h (0 Bft)
25.07.2021 14:45 20,7 C 72 % 1009,3 hPa 0,0 l/m 0,0 km/h (0 Bft) S-SW 192 15,5 C 20,7 C 0,0 km/h (0 Bft)
25.07.2021 14:40 20,8 C 71 % 1009,1 hPa 0,0 l/m 0,1 km/h (0 Bft) S 189 15,3 C 20,8 C 1,6 km/h (1 Bft)
25.07.2021 14:35 20,8 C 67 % 1009,1 hPa 0,0 l/m 0,0 km/h (0 Bft) O-SO 111 14,4 C 20,8 C 1,6 km/h (1 Bft)
25.07.2021 14:30 20,9 C 68 % 1009,2 hPa 0,0 l/m 1,2 km/h (1 Bft) S-SO 165 14,8 C 20,9 C 12,9 km/h (3 Bft)
25.07.2021 14:25 21,0 C 69 % 1009,2 hPa 0,0 l/m 0,9 km/h (0 Bft) S-SW 202 15,1 C 21,0 C 11,3 km/h (2 Bft)
25.07.2021 14:20 21,1 C 68 % 1009,3 hPa 0,0 l/m 0,1 km/h (0 Bft) S-SW 192 15,0 C 21,1 C 4,8 km/h (1 Bft)
25.07.2021 14:15 21,1 C 67 % 1009,3 hPa 0,0 l/m 0,0 km/h (0 Bft) SO 134 14,7 C 21,1 C 0,0 km/h (0 Bft)
25.07.2021 14:10 21,1 C 67 % 1009,3 hPa 0,0 l/m 0,0 km/h (0 Bft) S-SO 167 14,7 C 21,1 C 0,0 km/h (0 Bft)
25.07.2021 14:05 21,1 C 67 % 1009,3 hPa 0,0 l/m 0,1 km/h (0 Bft) S 175 14,7 C 21,1 C 3,2 km/h (1 Bft)
25.07.2021 14:00 21,2 C 67 % 1009,4 hPa 0,0 l/m 0,8 km/h (0 Bft) S-SO 148 14,8 C 21,2 C 8,0 km/h (2 Bft)
25.07.2021 13:55 21,3 C 65 % 1009,4 hPa 0,0 l/m 0,7 km/h (0 Bft) SO 136 14,4 C 21,3 C 4,8 km/h (1 Bft)
25.07.2021 13:50 21,6 C 64 % 1009,4 hPa 0,0 l/m 0,3 km/h (0 Bft) W-NW 298 14,5 C 21,6 C 3,2 km/h (1 Bft)
25.07.2021 13:45 21,6 C 63 % 1009,3 hPa 0,0 l/m 0,0 km/h (0 Bft) O 94 14,2 C 21,6 C 0,0 km/h (0 Bft)
25.07.2021 13:40 21,6 C 63 % 1009,4 hPa 0,0 l/m 0,0 km/h (0 Bft) O 94 14,2 C 21,6 C 0,0 km/h (0 Bft)
25.07.2021 13:35 21,6 C 62 % 1009,3 hPa 0,0 l/m 0,0 km/h (0 Bft) O 94 14,0 C 21,6 C 0,0 km/h (0 Bft)
25.07.2021 13:30 21,7 C 61 % 1009,1 hPa 0,0 l/m 0,0 km/h (0 Bft) O-NO 65 13,8 C 21,7 C 0,0 km/h (0 Bft)
25.07.2021 13:25 22,2 C 59 % 1009,1 hPa 0,0 l/m 0,1 km/h (0 Bft) NO 46 13,8 C 22,2 C 3,2 km/h (1 Bft)
25.07.2021 13:20 22,7 C 60 % 1009,1 hPa 0,0 l/m 0,5 km/h (0 Bft) N 5 14,5 C 22,7 C 3,2 km/h (1 Bft)
25.07.2021 13:15 22,4 C 57 % 1009,1 hPa 0,0 l/m 2,1 km/h (1 Bft) O-NO 59 13,5 C 22,4 C 6,4 km/h (2 Bft)
25.07.2021 13:10 22,9 C 58 % 1009,1 hPa 0,0 l/m 1,9 km/h (1 Bft) S 169 14,2 C 22,9 C 8,0 km/h (2 Bft)
25.07.2021 13:05 22,8 C 61 % 1009,1 hPa 0,0 l/m 1,1 km/h (1 Bft) NO 35 14,9 C 22,8 C 6,4 km/h (2 Bft)
25.07.2021 13:00 22,9 C 57 % 1009,2 hPa 0,0 l/m 2,4 km/h (1 Bft) SO 144 13,9 C 22,9 C 8,0 km/h (2 Bft)
25.07.2021 12:55 22,9 C 62 % 1009,1 hPa 0,0 l/m 2,6 km/h (1 Bft) NO 38 15,2 C 22,9 C 6,4 km/h (2 Bft)
25.07.2021 12:50 22,8 C 64 % 1009,1 hPa 0,0 l/m 0,7 km/h (0 Bft) O-NO 73 15,6 C 22,8 C 3,2 km/h (1 Bft)
25.07.2021 12:45 22,8 C 62 % 1009,1 hPa 0,0 l/m 1,3 km/h (1 Bft) O-NO 61 15,1 C 22,8 C 4,8 km/h (1 Bft)
25.07.2021 12:40 22,9 C 59 % 1009,1 hPa 0,0 l/m 1,8 km/h (1 Bft) SO 132 14,5 C 22,9 C 6,4 km/h (2 Bft)
25.07.2021 12:35 22,8 C 61 % 1009,0 hPa 0,0 l/m 2,4 km/h (1 Bft) N-NO 30 14,9 C 22,8 C 8,0 km/h (2 Bft)
25.07.2021 12:30 22,8 C 59 % 1009,1 hPa 0,0 l/m 1,5 km/h (1 Bft) O-NO 74 14,4 C 22,8 C 4,8 km/h (1 Bft)
25.07.2021 12:25 22,8 C 60 % 1009,1 hPa 0,0 l/m 2,2 km/h (1 Bft) SW 232 14,6 C 22,8 C 8,0 km/h (2 Bft)
25.07.2021 12:20 22,7 C 57 % 1009,1 hPa 0,0 l/m 2,1 km/h (1 Bft) NO 40 13,7 C 22,7 C 4,8 km/h (1 Bft)
25.07.2021 12:15 22,8 C 66 % 1009,1 hPa 0,0 l/m 2,6 km/h (1 Bft) S-SW 196 16,1 C 22,8 C 8,0 km/h (2 Bft)
25.07.2021 12:10 22,7 C 62 % 1009,1 hPa 0,0 l/m 1,2 km/h (1 Bft) O-SO 119 15,0 C 22,7 C 4,8 km/h (1 Bft)
25.07.2021 12:05 22,6 C 60 % 1009,1 hPa 0,0 l/m 1,0 km/h (0 Bft) S-SO 154 14,4 C 22,6 C 4,8 km/h (1 Bft)
25.07.2021 12:00 22,8 C 58 % 1009,2 hPa 0,0 l/m 2,7 km/h (1 Bft) SW 232 14,1 C 22,8 C 8,0 km/h (2 Bft)
25.07.2021 11:55 22,8 C 65 % 1009,2 hPa 0,0 l/m 3,3 km/h (1 Bft) S-SW 195 15,9 C 22,8 C 12,9 km/h (3 Bft)
25.07.2021 11:50 22,6 C 63 % 1009,2 hPa 0,0 l/m 2,1 km/h (1 Bft) SW 225 15,2 C 22,6 C 9,7 km/h (2 Bft)
25.07.2021 11:45 22,2 C 64 % 1009,1 hPa 0,0 l/m 0,8 km/h (0 Bft) O 94 15,1 C 22,2 C 4,8 km/h (1 Bft)
25.07.2021 11:40 22,2 C 63 % 1009,1 hPa 0,0 l/m 1,3 km/h (1 Bft) O-NO 63 14,8 C 22,2 C 3,2 km/h (1 Bft)
25.07.2021 11:35 22,2 C 65 % 1009,2 hPa 0,0 l/m 0,7 km/h (0 Bft) S-SO 161 15,3 C 22,2 C 8,0 km/h (2 Bft)
25.07.2021 11:30 21,7 C 65 % 1009,2 hPa 0,0 l/m 0,1 km/h (0 Bft) NO 40 14,8 C 21,7 C 3,2 km/h (1 Bft)
25.07.2021 11:25 21,8 C 64 % 1009,2 hPa 0,0 l/m 0,0 km/h (0 Bft) S-SO 160 14,7 C 21,8 C 0,0 km/h (0 Bft)
25.07.2021 11:20 22,1 C 63 % 1009,2 hPa 0,0 l/m 0,0 km/h (0 Bft) S-SW 205 14,7 C 22,1 C 1,6 km/h (1 Bft)
25.07.2021 11:15 22,5 C 63 % 1009,1 hPa 0,0 l/m 0,0 km/h (0 Bft) S 171 15,1 C 22,5 C 0,0 km/h (0 Bft)
25.07.2021 11:10 22,4 C 64 % 1009,1 hPa 0,0 l/m 0,0 km/h (0 Bft) S 169 15,2 C 22,4 C 1,6 km/h (1 Bft)
25.07.2021 11:05 22,3 C 66 % 1009,2 hPa 0,0 l/m 0,0 km/h (0 Bft) O 90 15,6 C 22,3 C 1,6 km/h (1 Bft)
25.07.2021 11:00 21,8 C 71 % 1009,1 hPa 0,0 l/m 1,6 km/h (1 Bft) N 5 16,3 C 21,8 C 6,4 km/h (2 Bft)
25.07.2021 10:55 21,3 C 69 % 1009,1 hPa 0,0 l/m 0,1 km/h (0 Bft) N 5 15,4 C 21,3 C 1,6 km/h (1 Bft)
25.07.2021 10:50 22,0 C 69 % 1009,2 hPa 0,0 l/m 0,8 km/h (0 Bft) N 355 16,0 C 22,0 C 3,2 km/h (1 Bft)
25.07.2021 10:45 22,0 C 71 % 1009,2 hPa 0,0 l/m 2,1 km/h (1 Bft) N-NO 19 16,5 C 22,0 C 8,0 km/h (2 Bft)
25.07.2021 10:40 22,0 C 70 % 1009,2 hPa 0,0 l/m 0,9 km/h (0 Bft) N-NO 20 16,3 C 22,0 C 4,8 km/h (1 Bft)
25.07.2021 10:35 21,8 C 68 % 1009,2 hPa 0,0 l/m 0,7 km/h (0 Bft) W-NW 282 15,6 C 21,8 C 4,8 km/h (1 Bft)
25.07.2021 10:30 21,8 C 69 % 1009,2 hPa 0,0 l/m 2,0 km/h (1 Bft) N-NO 32 15,9 C 21,8 C 8,0 km/h (2 Bft)
25.07.2021 10:25 21,2 C 65 % 1009,2 hPa 0,0 l/m 0,7 km/h (0 Bft) O-SO 113 14,4 C 21,2 C 4,8 km/h (1 Bft)
25.07.2021 10:20 21,2 C 63 % 1009,2 hPa 0,0 l/m 0,0 km/h (0 Bft) SO 143 13,9 C 21,2 C 0,0 km/h (0 Bft)
25.07.2021 10:15 21,2 C 63 % 1009,2 hPa 0,0 l/m 0,5 km/h (0 Bft) SO 143 13,9 C 21,2 C 3,2 km/h (1 Bft)
25.07.2021 10:10 20,8 C 64 % 1009,3 hPa 0,0 l/m 1,0 km/h (0 Bft) NO 49 13,7 C 20,8 C 3,2 km/h (1 Bft)
_ Min-Zeit 06:15 12:20 01:50 - 19:00 - - 23:15 06:15 19:00
Minimum _ 12,7 C 57 % 1008,7 hPa - 0,0 km/h (0 Bft) - - 10,7 C 12,7 C 0,0 km/h (0 Bft)
_ Max-Zeit 13:00 06:45 19:00 19:00 09:20 - - 17:50 12:40 22:15
Maximum _ 23,2 C 92 % 1011,1 hPa 0,0 l/m 5,0 km/h
N (1 Bft)
- - 16,8 C 22,9 C 14,5 km/h
S-SW (3 Bft)
Durchschnitt _ 18,6 C 72 % 1009,7 hPa #0,0 l/m 0,4 km/h (0 Bft) N-NO - 13,4 C 18,6 C 2,1 km/h (1 Bft)